Time;durP1;ratioP1;P1;durP2;ratioP2;P2;SDS_P1;SDS_P2;PMS_P1;PMS_P2;Temp;Humidity;BMP_temperature;BMP_pressure;BME280_temperature;BME280_humidity;BME280_pressure;Samples;Min_cycle;Max_cycle;Signal;HPM_P1;HPM_P2
2023/08/21 00:00:12;;;;;;;3.78;1.10;;;17.70;99.90;;;;;;5081335;28;20660;-74
2023/08/21 00:02:43;;;;;;;2.20;0.98;;;17.80;99.90;;;;;;5081024;28;20216;-72
2023/08/21 00:05:14;;;;;;;1.88;0.95;;;17.90;99.90;;;;;;5078254;28;20197;-74
2023/08/21 00:07:46;;;;;;;1.48;0.98;;;17.90;99.90;;;;;;5088359;28;20200;-74
2023/08/21 00:10:17;;;;;;;4.35;0.90;;;18.00;99.90;;;;;;5088457;28;20205;-74
2023/08/21 00:12:47;;;;;;;1.60;0.70;;;18.10;99.90;;;;;;5080368;28;20211;-73
2023/08/21 00:15:20;;;;;;;2.88;1.00;;;18.30;99.90;;;;;;5074968;28;20667;-74
2023/08/21 00:17:51;;;;;;;0.85;0.60;;;18.40;99.90;;;;;;5080456;28;20231;-74
2023/08/21 00:20:22;;;;;;;1.40;0.80;;;18.50;99.90;;;;;;5093029;28;20196;-73
2023/08/21 00:22:53;;;;;;;1.25;0.90;;;18.60;99.90;;;;;;5095743;28;20563;-74
2023/08/21 00:25:25;;;;;;;1.98;0.90;;;18.70;99.90;;;;;;5095107;28;20235;-73
2023/08/21 00:27:56;;;;;;;0.73;0.73;;;18.70;99.90;;;;;;5093308;28;20188;-73
2023/08/21 00:30:28;;;;;;;1.77;0.70;;;18.80;99.90;;;;;;5094103;28;20551;-74
2023/08/21 00:32:59;;;;;;;2.78;0.60;;;18.80;99.90;;;;;;5095125;28;20220;-72
2023/08/21 00:35:30;;;;;;;2.90;0.73;;;18.90;99.90;;;;;;5095341;28;20189;-73
2023/08/21 00:38:00;;;;;;;0.95;0.68;;;18.90;99.90;;;;;;5095220;28;20201;-72
2023/08/21 00:40:33;;;;;;;1.50;0.70;;;19.00;99.90;;;;;;5095398;28;20193;-73
2023/08/21 00:43:04;;;;;;;1.33;0.80;;;19.10;99.90;;;;;;5095802;28;20195;-74
2023/08/21 00:45:37;;;;;;;0.65;0.63;;;19.10;99.90;;;;;;5094734;28;20536;-74
2023/08/21 00:48:08;;;;;;;1.38;0.68;;;19.20;99.90;;;;;;5091867;28;20196;-74
2023/08/21 00:50:40;;;;;;;1.45;0.50;;;19.30;99.90;;;;;;5094846;28;20188;-73
2023/08/21 00:53:10;;;;;;;0.85;0.63;;;19.40;99.90;;;;;;5094998;28;20224;-74
2023/08/21 00:55:42;;;;;;;0.80;0.70;;;19.50;99.90;;;;;;5095827;28;20184;-74
2023/08/21 00:58:14;;;;;;;2.25;0.60;;;19.60;99.90;;;;;;5095458;28;20191;-74
2023/08/21 01:00:51;;;;;;;1.23;0.60;;;19.60;99.90;;;;;;5094767;28;20219;-74
2023/08/21 01:03:22;;;;;;;1.48;0.70;;;19.60;99.90;;;;;;5094744;28;20267;-74
2023/08/21 01:05:53;;;;;;;1.75;0.80;;;19.70;99.90;;;;;;5093057;28;20193;-74
2023/08/21 01:08:31;;;;;;;1.55;0.90;;;19.80;99.90;;;;;;5094246;28;20199;-74
2023/08/21 01:11:09;;;;;;;3.50;0.75;;;19.80;99.90;;;;;;5094327;28;20676;-75
2023/08/21 01:13:51;;;;;;;1.02;0.55;;;19.90;99.90;;;;;;5094651;28;20188;-74
2023/08/21 01:16:24;;;;;;;1.08;0.60;;;20.00;99.90;;;;;;5094185;28;20628;-73
2023/08/21 01:18:57;;;;;;;1.25;0.65;;;20.00;99.90;;;;;;5094420;28;20188;-72
2023/08/21 01:21:27;;;;;;;2.97;0.80;;;20.10;99.90;;;;;;5090804;28;20192;-73
2023/08/21 01:24:03;;;;;;;0.55;0.50;;;20.20;99.90;;;;;;5094231;28;20196;-74
2023/08/21 01:26:33;;;;;;;1.27;0.70;;;20.30;99.90;;;;;;5094281;28;20192;-72
2023/08/21 01:29:04;;;;;;;0.60;0.60;;;20.40;99.90;;;;;;5094340;28;20200;-74
2023/08/21 01:31:40;;;;;;;1.20;0.80;;;20.50;99.90;;;;;;5094398;28;20248;-75
2023/08/21 01:34:13;;;;;;;1.73;0.50;;;20.60;99.90;;;;;;5094063;28;20648;-74
2023/08/21 01:36:45;;;;;;;1.80;0.90;;;20.60;99.90;;;;;;5094086;28;20219;-74
2023/08/21 01:39:18;;;;;;;1.90;0.77;;;20.70;99.90;;;;;;5093323;28;20644;-74
2023/08/21 01:41:48;;;;;;;1.58;0.70;;;20.60;99.90;;;;;;5094039;28;20751;-74
2023/08/21 01:44:19;;;;;;;0.93;0.70;;;20.50;99.90;;;;;;5093977;28;20201;-74
2023/08/21 01:46:50;;;;;;;3.97;0.70;;;20.60;99.90;;;;;;5094226;28;20191;-74
2023/08/21 01:49:21;;;;;;;3.03;0.70;;;20.80;99.90;;;;;;5094482;28;20230;-75
2023/08/21 01:51:51;;;;;;;2.53;1.15;;;20.90;99.90;;;;;;5093473;28;20216;-73
2023/08/21 01:54:24;;;;;;;2.50;1.00;;;21.00;99.90;;;;;;5092609;28;20770;-74
2023/08/21 01:56:55;;;;;;;1.38;0.90;;;21.10;99.90;;;;;;5084402;28;20181;-74
2023/08/21 01:59:26;;;;;;;1.17;0.80;;;21.30;99.90;;;;;;5073305;28;20570;-74
2023/08/21 02:01:57;;;;;;;2.08;1.00;;;21.30;99.90;;;;;;5084756;28;20220;-74
2023/08/21 02:04:28;;;;;;;1.13;0.93;;;21.40;99.90;;;;;;5093517;28;20192;-75
2023/08/21 02:06:58;;;;;;;2.00;1.00;;;21.50;99.90;;;;;;5093384;28;20203;-74
2023/08/21 02:09:31;;;;;;;1.38;0.90;;;21.60;99.90;;;;;;5093376;28;20198;-74
2023/08/21 02:12:02;;;;;;;1.17;0.73;;;21.60;99.90;;;;;;5093366;28;20236;-74
2023/08/21 02:14:32;;;;;;;2.42;0.95;;;21.60;99.90;;;;;;5093373;28;20283;-74
2023/08/21 02:17:05;;;;;;;1.70;0.82;;;21.70;99.90;;;;;;5093471;28;20192;-74
2023/08/21 02:19:36;;;;;;;1.00;0.75;;;21.70;99.90;;;;;;5093433;28;20196;-75
2023/08/21 02:22:07;;;;;;;1.40;0.80;;;21.70;99.90;;;;;;5093179;28;20199;-75
2023/08/21 02:24:40;;;;;;;0.93;0.65;;;21.80;99.90;;;;;;5093446;28;20195;-75
2023/08/21 02:27:11;;;;;;;0.73;0.50;;;21.80;99.90;;;;;;5093030;28;20192;-75
2023/08/21 02:29:42;;;;;;;1.80;0.70;;;21.80;99.90;;;;;;5093179;28;20192;-74
2023/08/21 02:32:12;;;;;;;1.05;0.60;;;21.80;99.90;;;;;;5092992;28;20579;-75
2023/08/21 02:34:43;;;;;;;1.05;0.70;;;21.80;99.90;;;;;;5093346;28;20216;-74
2023/08/21 02:37:14;;;;;;;2.85;0.70;;;21.80;99.90;;;;;;5092977;28;20191;-74
2023/08/21 02:39:46;;;;;;;0.60;0.60;;;21.70;99.90;;;;;;5093130;28;20189;-74
2023/08/21 02:42:17;;;;;;;2.40;0.70;;;21.70;99.90;;;;;;5093139;28;20188;-74
2023/08/21 02:44:48;;;;;;;1.20;0.60;;;21.70;99.90;;;;;;5085088;28;20196;-73
2023/08/21 02:47:18;;;;;;;0.93;0.65;;;21.60;99.90;;;;;;5085104;28;20196;-75
2023/08/21 02:49:49;;;;;;;3.25;0.93;;;21.60;99.90;;;;;;5080509;28;20210;-75
2023/08/21 02:52:20;;;;;;;4.05;1.27;;;21.70;99.90;;;;;;5092938;28;20220;-74
2023/08/21 02:54:53;;;;;;;1.70;0.80;;;21.60;99.90;;;;;;5091787;28;20196;-74
2023/08/21 02:57:23;;;;;;;4.00;1.20;;;21.60;99.90;;;;;;5075038;28;20204;-75
2023/08/21 02:59:54;;;;;;;0.90;0.80;;;21.50;99.90;;;;;;5085887;28;20718;-74
2023/08/21 03:02:25;;;;;;;1.38;0.70;;;21.50;99.90;;;;;;5083759;28;20189;-74
2023/08/21 03:04:56;;;;;;;0.75;0.50;;;21.50;99.90;;;;;;5080561;28;20219;-74
2023/08/21 03:07:27;;;;;;;0.90;0.77;;;21.40;99.90;;;;;;5082097;28;20201;-74
2023/08/21 03:09:59;;;;;;;0.50;0.45;;;21.30;99.90;;;;;;5084517;28;20200;-75
2023/08/21 03:12:30;;;;;;;0.93;0.60;;;21.40;99.90;;;;;;5087980;28;20212;-74
2023/08/21 03:15:01;;;;;;;1.30;0.70;;;21.50;99.90;;;;;;5078831;28;20681;-75
2023/08/21 03:17:31;;;;;;;1.02;0.70;;;21.50;99.90;;;;;;5073373;28;20204;-75
2023/08/21 03:20:04;;;;;;;1.02;0.55;;;21.50;99.90;;;;;;5079057;28;20192;-75
2023/08/21 03:22:35;;;;;;;0.68;0.68;;;21.40;99.90;;;;;;5086264;28;20201;-74
2023/08/21 03:25:08;;;;;;;0.75;0.70;;;21.40;99.90;;;;;;5073850;28;20204;-75
2023/08/21 03:27:40;;;;;;;0.80;0.80;;;21.40;99.90;;;;;;5073889;28;20196;-74
2023/08/21 03:30:11;;;;;;;0.77;0.55;;;21.40;99.90;;;;;;5086544;28;20192;-75
2023/08/21 03:32:42;;;;;;;2.08;0.50;;;21.50;99.90;;;;;;5090107;28;20212;-75
2023/08/21 03:35:12;;;;;;;1.67;0.63;;;21.70;99.90;;;;;;5090725;28;20193;-75
2023/08/21 03:37:43;;;;;;;0.73;0.70;;;21.70;99.90;;;;;;5083224;28;20196;-74
2023/08/21 03:40:16;;;;;;;0.90;0.65;;;21.50;99.90;;;;;;5080903;28;20211;-75
2023/08/21 03:42:47;;;;;;;1.00;0.60;;;21.40;99.90;;;;;;5094994;28;20210;-75
2023/08/21 03:45:18;;;;;;;0.50;0.40;;;21.30;99.90;;;;;;5092846;28;20550;-75
2023/08/21 03:47:48;;;;;;;3.10;0.70;;;21.40;99.90;;;;;;5079621;28;20590;-75
2023/08/21 03:50:19;;;;;;;1.27;1.00;;;21.40;99.90;;;;;;5076941;28;20208;-74
2023/08/21 03:52:50;;;;;;;0.70;0.70;;;21.30;99.90;;;;;;5076743;28;20216;-74
2023/08/21 03:55:22;;;;;;;1.70;0.52;;;21.40;99.90;;;;;;5085326;28;20208;-74
2023/08/21 03:57:53;;;;;;;0.90;0.55;;;21.40;99.90;;;;;;5086077;28;20199;-74
2023/08/21 04:00:24;;;;;;;1.17;0.70;;;21.50;99.90;;;;;;5089523;28;20223;-74
2023/08/21 04:02:55;;;;;;;1.85;0.70;;;21.60;99.90;;;;;;5085232;28;20197;-73
2023/08/21 04:05:26;;;;;;;2.58;0.60;;;21.50;99.90;;;;;;5085965;28;20278;-73
2023/08/21 04:07:56;;;;;;;1.08;0.70;;;21.60;99.90;;;;;;5081468;28;20199;-75
2023/08/21 04:10:29;;;;;;;1.58;0.75;;;21.60;99.90;;;;;;5091657;28;20346;-74
2023/08/21 04:13:00;;;;;;;1.50;0.70;;;21.60;99.90;;;;;;5086858;28;20239;-74
2023/08/21 04:15:30;;;;;;;0.90;0.60;;;21.50;99.90;;;;;;5077422;28;20552;-75
2023/08/21 04:18:01;;;;;;;3.65;0.80;;;21.60;99.90;;;;;;5075713;28;20216;-74
2023/08/21 04:20:32;;;;;;;1.08;0.77;;;21.50;99.90;;;;;;5075238;28;20216;-74
2023/08/21 04:23:02;;;;;;;0.60;0.60;;;21.50;99.90;;;;;;5087439;28;20204;-74
2023/08/21 04:25:35;;;;;;;1.25;0.70;;;21.50;99.90;;;;;;5087929;28;20638;-74
2023/08/21 04:28:07;;;;;;;0.85;0.82;;;21.50;99.90;;;;;;5085242;28;20192;-75
2023/08/21 04:30:38;;;;;;;1.30;0.65;;;21.40;99.90;;;;;;5091638;28;20632;-74
2023/08/21 04:33:09;;;;;;;2.05;0.82;;;21.40;99.90;;;;;;5078913;28;20296;-74
2023/08/21 04:35:41;;;;;;;2.53;0.75;;;21.50;99.90;;;;;;5089802;28;20560;-74
2023/08/21 04:38:12;;;;;;;2.75;1.00;;;21.50;99.90;;;;;;5078353;28;20206;-75
2023/08/21 04:40:44;;;;;;;1.30;1.10;;;21.40;99.90;;;;;;5083130;28;20211;-74
2023/08/21 04:43:15;;;;;;;2.65;0.73;;;21.20;99.90;;;;;;5075472;28;20201;-74
2023/08/21 04:45:52;;;;;;;2.00;0.88;;;21.20;99.90;;;;;;5074530;28;20189;-75
2023/08/21 04:48:23;;;;;;;2.55;1.00;;;21.20;99.90;;;;;;5074530;28;20220;-73
2023/08/21 04:50:54;;;;;;;2.40;0.93;;;21.00;99.90;;;;;;5084086;28;20212;-74
2023/08/21 04:53:24;;;;;;;1.92;1.10;;;20.90;99.90;;;;;;5093322;28;20226;-75
2023/08/21 04:55:57;;;;;;;3.42;0.90;;;20.90;99.90;;;;;;5074518;28;20203;-75
2023/08/21 04:58:28;;;;;;;2.45;0.90;;;20.90;99.90;;;;;;5076977;28;20197;-76
2023/08/21 05:00:59;;;;;;;2.25;0.98;;;20.90;99.90;;;;;;5075804;28;20578;-75
2023/08/21 05:03:30;;;;;;;2.55;0.93;;;20.70;99.90;;;;;;5085431;28;20196;-76
2023/08/21 05:06:01;;;;;;;0.98;0.70;;;20.70;99.90;;;;;;5086100;28;20207;-74
2023/08/21 05:08:31;;;;;;;1.98;0.80;;;20.70;99.90;;;;;;5081377;28;20212;-73
2023/08/21 05:11:04;;;;;;;2.30;0.70;;;20.70;99.90;;;;;;5078646;28;20238;-74
2023/08/21 05:13:35;;;;;;;1.33;1.00;;;20.70;99.90;;;;;;5074354;28;20238;-74
2023/08/21 05:16:06;;;;;;;3.20;1.15;;;20.80;99.90;;;;;;5074257;28;20185;-74
2023/08/21 05:18:37;;;;;;;1.70;1.00;;;20.60;99.90;;;;;;5074221;28;20192;-73
2023/08/21 05:21:07;;;;;;;2.53;0.90;;;20.50;99.90;;;;;;5074083;28;20691;-73
2023/08/21 05:23:38;;;;;;;1.77;0.90;;;20.20;99.90;;;;;;5074101;28;20189;-73
2023/08/21 05:26:11;;;;;;;4.00;1.10;;;20.10;99.90;;;;;;5094116;28;20192;-73
2023/08/21 05:28:41;;;;;;;3.10;1.00;;;20.10;99.90;;;;;;5093958;28;20188;-73
2023/08/21 05:31:12;;;;;;;2.75;0.90;;;20.00;99.90;;;;;;5093849;28;20199;-72
2023/08/21 05:33:43;;;;;;;1.77;1.00;;;20.00;99.90;;;;;;5093890;28;20589;-72
2023/08/21 05:36:13;;;;;;;1.98;0.90;;;19.90;99.90;;;;;;5076424;28;20200;-73
2023/08/21 05:38:44;;;;;;;1.02;0.75;;;19.90;99.90;;;;;;5093168;28;20546;-73
2023/08/21 05:41:17;;;;;;;3.75;0.82;;;19.90;99.90;;;;;;5094126;28;20191;-73
2023/08/21 05:43:48;;;;;;;2.63;0.88;;;19.90;99.90;;;;;;5093209;28;20298;-73
2023/08/21 05:46:19;;;;;;;1.25;0.75;;;19.90;99.90;;;;;;5073668;28;20189;-73
2023/08/21 05:48:50;;;;;;;1.35;0.90;;;19.80;99.90;;;;;;5072913;28;20197;-73
2023/08/21 05:51:20;;;;;;;2.15;1.10;;;19.80;99.90;;;;;;5086579;28;20678;-73
2023/08/21 05:53:51;;;;;;;3.50;0.90;;;19.70;99.90;;;;;;5094289;28;20227;-72
2023/08/21 05:56:24;;;;;;;1.60;0.85;;;19.60;99.90;;;;;;5094119;28;20663;-73
2023/08/21 05:58:54;;;;;;;2.47;0.93;;;19.70;99.90;;;;;;5092876;28;20200;-72
2023/08/21 06:01:25;;;;;;;1.42;0.90;;;19.70;99.90;;;;;;5072906;28;20662;-74
2023/08/21 06:03:56;;;;;;;2.08;0.77;;;19.70;99.90;;;;;;5073106;28;20185;-73
2023/08/21 06:06:27;;;;;;;1.10;0.95;;;19.70;99.90;;;;;;5084530;28;20196;-72
2023/08/21 06:08:57;;;;;;;1.85;0.95;;;19.70;99.90;;;;;;5076968;28;20200;-73
2023/08/21 06:11:30;;;;;;;2.05;0.80;;;19.80;99.90;;;;;;5074129;28;20696;-72
2023/08/21 06:14:01;;;;;;;1.88;1.00;;;19.70;99.90;;;;;;5079940;28;20676;-73
2023/08/21 06:16:31;;;;;;;2.10;1.00;;;19.70;99.90;;;;;;5082654;28;20200;-73
2023/08/21 06:19:02;;;;;;;1.70;0.68;;;19.70;99.90;;;;;;5092598;28;20659;-73
2023/08/21 06:21:33;;;;;;;3.33;0.70;;;19.70;99.90;;;;;;5081280;28;20202;-73
2023/08/21 06:24:03;;;;;;;1.42;0.70;;;19.50;99.90;;;;;;5082657;28;20204;-74
2023/08/21 06:26:36;;;;;;;3.60;1.10;;;19.40;99.90;;;;;;5093016;28;20196;-73
2023/08/21 06:29:07;;;;;;;1.23;0.80;;;19.30;99.90;;;;;;5093138;28;20188;-73
2023/08/21 06:31:37;;;;;;;2.60;0.82;;;19.30;99.90;;;;;;5093655;28;20196;-72
2023/08/21 06:34:08;;;;;;;1.30;0.70;;;19.20;99.90;;;;;;5093237;28;20234;-73
2023/08/21 06:36:39;;;;;;;4.60;0.88;;;19.10;99.90;;;;;;5092510;28;20564;-73
2023/08/21 06:39:09;;;;;;;3.85;0.98;;;19.10;99.90;;;;;;5093220;28;20191;-74
2023/08/21 06:41:42;;;;;;;2.92;0.85;;;19.00;99.90;;;;;;5081274;28;20197;-73
2023/08/21 06:44:13;;;;;;;2.22;0.80;;;19.00;99.90;;;;;;5072883;28;20223;-73
2023/08/21 06:46:43;;;;;;;4.82;0.73;;;18.90;99.90;;;;;;5072777;28;20197;-73
2023/08/21 06:49:14;;;;;;;1.17;0.80;;;18.90;99.90;;;;;;5076200;28;20200;-74
2023/08/21 06:51:45;;;;;;;2.03;1.10;;;18.80;99.90;;;;;;5077561;28;20636;-73
2023/08/21 06:54:15;;;;;;;1.10;0.80;;;18.80;99.90;;;;;;5074130;28;20209;-73
2023/08/21 06:56:48;;;;;;;1.35;0.75;;;18.70;99.90;;;;;;5090606;28;20184;-73
2023/08/21 06:59:19;;;;;;;1.83;0.80;;;18.60;99.90;;;;;;5090142;28;20220;-72
2023/08/21 07:01:50;;;;;;;1.65;0.80;;;18.60;99.90;;;;;;5089841;28;20185;-74
2023/08/21 07:04:20;;;;;;;2.58;0.80;;;18.50;99.90;;;;;;5071603;28;20193;-73
2023/08/21 07:06:51;;;;;;;1.08;0.80;;;18.50;99.90;;;;;;5071216;28;20219;-73
2023/08/21 07:09:22;;;;;;;1.73;0.90;;;18.40;99.90;;;;;;5072332;28;20193;-73
2023/08/21 07:11:55;;;;;;;2.13;0.93;;;18.40;99.90;;;;;;5071841;28;20240;-74
2023/08/21 07:14:25;;;;;;;2.67;1.00;;;18.30;99.90;;;;;;5074549;28;20212;-73
2023/08/21 07:16:56;;;;;;;1.20;0.80;;;18.20;99.90;;;;;;5091001;28;20196;-73
2023/08/21 07:19:27;;;;;;;2.72;0.95;;;18.20;99.90;;;;;;5096520;28;20242;-73
2023/08/21 07:21:58;;;;;;;1.60;0.80;;;18.10;99.90;;;;;;5094752;28;20195;-73
2023/08/21 07:24:28;;;;;;;2.22;1.02;;;18.00;99.90;;;;;;5090906;28;20216;-74
2023/08/21 07:27:01;;;;;;;2.65;1.10;;;17.90;99.90;;;;;;5081827;28;20196;-73
2023/08/21 07:29:32;;;;;;;1.42;1.10;;;17.90;99.90;;;;;;5086879;28;20208;-74
2023/08/21 07:32:04;;;;;;;1.20;1.10;;;17.80;99.90;;;;;;5086138;28;20232;-74
2023/08/21 07:34:35;;;;;;;3.70;1.10;;;17.70;99.90;;;;;;5081793;28;20212;-73
2023/08/21 07:37:05;;;;;;;2.13;1.35;;;17.70;99.90;;;;;;5078959;28;20204;-74
2023/08/21 07:39:36;;;;;;;3.45;1.30;;;17.60;99.90;;;;;;5086531;28;20188;-73
2023/08/21 07:42:09;;;;;;;2.53;1.10;;;17.60;99.90;;;;;;5092217;28;20196;-74
2023/08/21 07:44:40;;;;;;;1.88;1.10;;;17.50;99.90;;;;;;5080058;28;20193;-73
2023/08/21 07:47:10;;;;;;;5.80;3.00;;;17.50;99.90;;;;;;5085928;28;20196;-73
2023/08/21 07:49:41;;;;;;;6.53;4.22;;;17.40;99.90;;;;;;5083903;28;20265;-72
2023/08/21 07:52:12;;;;;;;4.75;3.00;;;17.30;99.90;;;;;;5089312;28;20516;-72
2023/08/21 07:54:42;;;;;;;1.98;1.35;;;17.30;99.90;;;;;;5076784;28;20446;-72
2023/08/21 07:57:15;;;;;;;1.67;1.10;;;17.20;99.90;;;;;;5074939;28;20207;-73
2023/08/21 07:59:46;;;;;;;1.33;1.00;;;17.20;99.90;;;;;;5083552;28;20212;-72
2023/08/21 08:02:17;;;;;;;1.75;1.23;;;17.10;99.90;;;;;;5087008;28;20571;-73
2023/08/21 08:04:47;;;;;;;4.13;1.30;;;17.10;99.90;;;;;;5080148;28;20196;-73
2023/08/21 08:07:18;;;;;;;1.85;1.38;;;17.10;99.90;;;;;;5095877;28;20192;-73
2023/08/21 08:09:49;;;;;;;1.55;1.10;;;17.00;99.90;;;;;;5085946;28;20558;-73
2023/08/21 08:12:22;;;;;;;3.85;1.50;;;17.00;99.90;;;;;;5077011;28;20231;-73
2023/08/21 08:14:52;;;;;;;2.85;1.38;;;17.00;99.90;;;;;;5083861;28;20228;-73
2023/08/21 08:17:23;;;;;;;2.25;1.77;;;16.90;99.90;;;;;;5094048;28;20612;-72
2023/08/21 08:19:54;;;;;;;1.98;1.40;;;16.80;99.90;;;;;;5086263;28;20193;-71
2023/08/21 08:22:24;;;;;;;2.70;1.20;;;16.80;99.90;;;;;;5075033;28;20263;-72
2023/08/21 08:24:55;;;;;;;1.70;1.35;;;16.80;99.90;;;;;;5074179;28;20201;-72
2023/08/21 08:27:29;;;;;;;1.98;1.20;;;16.80;99.90;;;;;;5075051;28;20189;-72
2023/08/21 08:29:59;;;;;;;2.00;1.00;;;16.70;99.90;;;;;;5074575;28;20189;-73
2023/08/21 08:32:30;;;;;;;1.77;1.13;;;16.70;99.90;;;;;;5088489;28;20550;-72
2023/08/21 08:35:01;;;;;;;1.40;1.23;;;16.70;99.90;;;;;;5094910;28;20683;-72
2023/08/21 08:37:32;;;;;;;1.88;1.05;;;16.70;99.90;;;;;;5094042;28;20215;-73
2023/08/21 08:40:03;;;;;;;2.00;1.13;;;16.70;99.90;;;;;;5079833;28;20793;-73
2023/08/21 08:42:36;;;;;;;2.63;1.40;;;16.70;99.90;;;;;;5074705;28;20280;-72
2023/08/21 08:45:08;;;;;;;1.90;1.23;;;16.60;99.90;;;;;;5074891;28;20196;-73
2023/08/21 08:47:39;;;;;;;1.20;1.10;;;16.60;99.90;;;;;;5075994;28;20201;-73
2023/08/21 08:50:13;;;;;;;1.77;1.17;;;16.60;99.90;;;;;;5075020;28;20193;-73
2023/08/21 08:52:45;;;;;;;1.60;1.23;;;16.60;99.90;;;;;;5080876;28;20728;-72
2023/08/21 08:55:15;;;;;;;2.25;1.00;;;16.60;99.90;;;;;;5090739;28;20219;-72
2023/08/21 08:57:48;;;;;;;2.70;1.20;;;16.50;99.90;;;;;;5084783;28;20200;-73
2023/08/21 09:00:19;;;;;;;1.73;1.00;;;16.50;99.90;;;;;;5085767;28;20204;-73
2023/08/21 09:02:50;;;;;;;3.42;1.20;;;16.50;99.90;;;;;;5079167;28;20254;-74
2023/08/21 09:05:21;;;;;;;2.60;1.40;;;16.50;99.90;;;;;;5086579;28;20200;-74
2023/08/21 09:08:06;;;;;;;1.35;1.10;;;16.40;99.90;;;;;;5083208;28;20196;-73
2023/08/21 09:10:38;;;;;;;1.40;1.10;;;16.40;99.90;;;;;;5081539;28;20282;-73
2023/08/21 09:13:16;;;;;;;1.75;1.10;;;16.40;99.90;;;;;;5073778;28;20197;-73
2023/08/21 09:15:48;;;;;;;1.60;1.10;;;16.30;99.90;;;;;;5077147;28;20644;-73
2023/08/21 09:18:19;;;;;;;2.60;1.20;;;16.30;99.90;;;;;;5076965;28;20226;-74
2023/08/21 09:20:49;;;;;;;2.90;1.35;;;16.30;99.90;;;;;;5076964;28;20197;-74
2023/08/21 09:23:20;;;;;;;1.70;1.10;;;16.30;99.90;;;;;;5083802;28;20258;-73
2023/08/21 09:25:51;;;;;;;3.08;1.20;;;16.20;99.90;;;;;;5088853;28;20200;-73
2023/08/21 09:28:28;;;;;;;3.72;1.10;;;16.20;99.90;;;;;;5074548;28;20197;-73
2023/08/21 09:30:59;;;;;;;1.42;1.30;;;16.20;99.90;;;;;;5080686;28;20202;-74
2023/08/21 09:33:29;;;;;;;2.20;1.20;;;16.10;99.90;;;;;;5085779;28;20192;-74
2023/08/21 09:36:00;;;;;;;1.27;1.17;;;16.10;99.90;;;;;;5084578;28;20215;-73
2023/08/21 09:38:31;;;;;;;1.98;1.50;;;16.10;99.90;;;;;;5074082;28;20660;-74
2023/08/21 09:41:03;;;;;;;1.88;1.25;;;16.00;99.90;;;;;;5085061;28;20195;-74
2023/08/21 09:43:43;;;;;;;2.80;1.13;;;16.10;99.90;;;;;;5075567;28;20203;-74
2023/08/21 09:46:18;;;;;;;1.10;1.00;;;16.00;99.90;;;;;;5078310;28;20201;-73
2023/08/21 09:48:49;;;;;;;1.50;1.20;;;16.00;99.90;;;;;;5079196;28;20204;-73
2023/08/21 09:51:20;;;;;;;2.00;1.33;;;16.00;99.90;;;;;;5081618;28;20202;-74
2023/08/21 09:53:51;;;;;;;1.85;1.58;;;16.00;99.90;;;;;;5077141;28;20288;-74
2023/08/21 09:56:22;;;;;;;1.80;1.50;;;15.90;99.90;;;;;;5077032;28;20205;-73
2023/08/21 09:58:55;;;;;;;2.65;1.60;;;15.90;99.90;;;;;;5080983;28;20227;-74
2023/08/21 10:01:27;;;;;;;2.78;1.63;;;15.90;99.90;;;;;;5074608;28;20689;-73
2023/08/21 10:04:00;;;;;;;2.58;1.50;;;15.90;99.90;;;;;;5086102;28;20200;-73
2023/08/21 10:06:31;;;;;;;1.58;1.40;;;15.90;99.90;;;;;;5084876;28;20276;-73
2023/08/21 10:09:02;;;;;;;1.42;1.33;;;15.80;99.90;;;;;;5077897;28;20192;-73
2023/08/21 10:11:33;;;;;;;1.65;1.20;;;15.80;99.90;;;;;;5074108;28;20236;-74
2023/08/21 10:14:07;;;;;;;2.15;1.55;;;15.70;99.90;;;;;;5072848;28;20196;-74
2023/08/21 10:16:38;;;;;;;4.38;1.55;;;15.70;99.90;;;;;;5075046;28;20643;-73
2023/08/21 10:19:10;;;;;;;3.08;1.60;;;15.70;99.90;;;;;;5073355;28;20196;-73
2023/08/21 10:21:40;;;;;;;1.85;1.60;;;15.60;99.90;;;;;;5078582;28;20283;-74
2023/08/21 10:24:11;;;;;;;1.75;1.25;;;15.50;99.90;;;;;;5084288;28;20196;-74
2023/08/21 10:26:42;;;;;;;2.00;1.70;;;15.40;99.90;;;;;;5077758;28;20199;-73
2023/08/21 10:29:15;;;;;;;2.13;1.60;;;15.40;99.90;;;;;;5081974;28;20196;-73
2023/08/21 10:31:46;;;;;;;2.83;1.70;;;15.40;99.90;;;;;;5093394;28;20192;-73
2023/08/21 10:34:17;;;;;;;2.42;1.75;;;15.40;99.90;;;;;;5075730;28;20574;-73
2023/08/21 10:37:14;;;;;;;1.90;1.25;;;15.40;99.90;;;;;;5083040;28;20208;-73
2023/08/21 10:39:59;;;;;;;1.85;1.40;;;15.40;99.90;;;;;;5080785;28;20204;-73
2023/08/21 10:42:43;;;;;;;1.70;1.40;;;15.40;99.90;;;;;;5086234;28;20284;-73
2023/08/21 10:45:18;;;;;;;3.15;1.50;;;15.40;99.90;;;;;;5077539;28;20200;-73
2023/08/21 10:47:50;;;;;;;2.00;1.30;;;15.40;99.90;;;;;;5079284;28;20189;-73
2023/08/21 10:50:21;;;;;;;4.82;1.58;;;15.40;99.90;;;;;;5096307;28;20184;-73
2023/08/21 10:52:53;;;;;;;1.80;1.40;;;15.40;99.90;;;;;;5089968;28;20636;-73
2023/08/21 10:55:24;;;;;;;3.47;1.40;;;15.40;99.90;;;;;;5094796;28;20212;-73
2023/08/21 10:57:55;;;;;;;2.38;1.63;;;15.40;99.90;;;;;;5095679;28;20223;-73
2023/08/21 11:00:27;;;;;;;2.65;1.40;;;15.40;99.90;;;;;;5088630;28;20657;-73
2023/08/21 11:02:58;;;;;;;2.28;1.50;;;15.40;99.90;;;;;;5081088;28;20283;-73
2023/08/21 11:05:29;;;;;;;1.50;1.15;;;15.40;99.90;;;;;;5077094;28;20204;-73
2023/08/21 11:08:00;;;;;;;1.95;1.33;;;15.40;99.90;;;;;;5077477;28;20206;-73
2023/08/21 11:10:34;;;;;;;2.28;1.50;;;15.40;99.90;;;;;;5086225;28;20232;-73
2023/08/21 11:13:09;;;;;;;1.60;1.30;;;15.30;99.90;;;;;;5085625;28;20200;-73
2023/08/21 11:15:42;;;;;;;3.20;1.40;;;15.30;99.90;;;;;;5086211;28;20211;-72
2023/08/21 11:18:13;;;;;;;1.95;1.17;;;15.30;99.90;;;;;;5092234;28;20196;-72
2023/08/21 11:20:44;;;;;;;1.77;1.23;;;15.30;99.90;;;;;;5084736;28;20200;-72
2023/08/21 11:23:15;;;;;;;1.80;1.50;;;15.30;99.90;;;;;;5083165;28;20232;-73
2023/08/21 11:25:46;;;;;;;2.85;2.20;;;15.30;99.90;;;;;;5083637;28;20690;-72
2023/08/21 11:28:20;;;;;;;2.70;1.77;;;15.20;99.90;;;;;;5088645;28;20197;-73
2023/08/21 11:30:52;;;;;;;2.05;1.65;;;15.20;99.90;;;;;;5086693;28;20204;-73
2023/08/21 11:33:23;;;;;;;3.83;1.63;;;15.20;99.90;;;;;;5096545;28;20184;-72
2023/08/21 11:35:57;;;;;;;2.97;1.35;;;15.20;99.90;;;;;;5076337;28;20224;-72
2023/08/21 11:38:29;;;;;;;2.05;1.20;;;15.20;99.90;;;;;;5076621;28;20185;-72
2023/08/21 11:41:00;;;;;;;1.80;1.20;;;15.10;99.90;;;;;;5076639;28;20200;-73
2023/08/21 11:43:42;;;;;;;2.10;1.17;;;15.20;99.90;;;;;;5077976;28;20200;-73
2023/08/21 11:46:14;;;;;;;1.80;1.08;;;15.10;99.90;;;;;;5092065;28;20230;-72
2023/08/21 11:48:45;;;;;;;1.90;1.20;;;15.10;99.90;;;;;;5084277;28;20200;-72
2023/08/21 11:51:16;;;;;;;1.90;1.23;;;15.10;99.90;;;;;;5076070;28;20216;-72
2023/08/21 11:53:49;;;;;;;2.03;1.30;;;15.10;99.90;;;;;;5084288;28;20204;-72
2023/08/21 11:56:20;;;;;;;3.17;1.30;;;15.10;99.90;;;;;;5093566;28;20215;-72
2023/08/21 11:58:51;;;;;;;2.97;1.50;;;15.00;99.90;;;;;;5079538;28;20565;-73
2023/08/21 12:01:24;;;;;;;1.80;1.50;;;15.00;99.90;;;;;;5089083;28;20196;-73
2023/08/21 12:03:56;;;;;;;2.95;1.42;;;15.00;99.90;;;;;;5093323;28;20196;-72
2023/08/21 12:06:32;;;;;;;1.33;1.23;;;14.90;99.90;;;;;;5093277;28;20232;-72
2023/08/21 12:09:04;;;;;;;1.52;1.20;;;14.90;99.90;;;;;;5084483;28;20195;-72
2023/08/21 12:11:35;;;;;;;1.40;1.30;;;14.90;99.90;;;;;;5081953;28;20236;-72
2023/08/21 12:14:06;;;;;;;1.55;1.30;;;14.80;99.90;;;;;;5075179;28;20192;-72
2023/08/21 12:16:38;;;;;;;1.35;1.10;;;14.80;99.90;;;;;;5088980;28;20578;-71
2023/08/21 12:19:11;;;;;;;1.83;1.38;;;14.70;99.90;;;;;;5092377;28;20671;-72
2023/08/21 12:21:42;;;;;;;1.63;1.08;;;14.70;99.90;;;;;;5086114;28;20197;-72
2023/08/21 12:24:13;;;;;;;1.92;1.10;;;14.70;99.90;;;;;;5078129;28;20589;-73
2023/08/21 12:26:44;;;;;;;1.67;1.20;;;14.60;99.90;;;;;;5080264;28;20246;-72
2023/08/21 12:29:15;;;;;;;2.42;1.40;;;14.60;99.90;;;;;;5077791;28;20196;-72
2023/08/21 12:31:47;;;;;;;1.55;1.27;;;14.60;99.90;;;;;;5077599;28;20197;-71
2023/08/21 12:34:18;;;;;;;3.22;2.10;;;14.50;99.90;;;;;;5094213;28;20192;-72
2023/08/21 12:36:49;;;;;;;3.95;3.30;;;14.50;99.90;;;;;;5095263;28;20220;-72
2023/08/21 12:39:20;;;;;;;4.05;3.00;;;14.40;99.90;;;;;;5093963;28;20210;-72
2023/08/21 12:41:50;;;;;;;3.92;3.28;;;14.30;99.90;;;;;;5092384;28;20232;-72
2023/08/21 12:44:21;;;;;;;4.95;3.58;;;14.30;99.90;;;;;;5085035;28;20196;-73
2023/08/21 12:46:54;;;;;;;5.47;4.07;;;14.20;99.90;;;;;;5074715;28;20637;-73
2023/08/21 12:49:24;;;;;;;9.43;5.70;;;14.20;99.90;;;;;;5075976;28;20634;-73
2023/08/21 12:51:55;;;;;;;10.73;6.15;;;14.10;99.90;;;;;;5078724;28;20185;-74
2023/08/21 12:54:26;;;;;;;8.30;5.80;;;14.10;99.90;;;;;;5094998;28;20581;-73
2023/08/21 12:56:57;;;;;;;5.40;4.60;;;14.20;99.90;;;;;;5083401;28;20228;-73
2023/08/21 12:59:27;;;;;;;5.32;4.30;;;14.10;99.90;;;;;;5085687;28;20219;-73
2023/08/21 13:02:01;;;;;;;5.97;3.75;;;14.10;99.90;;;;;;5075542;28;20193;-73
2023/08/21 13:04:32;;;;;;;5.35;3.90;;;14.10;99.90;;;;;;5074820;28;20201;-73
2023/08/21 13:07:03;;;;;;;6.22;3.35;;;14.10;99.90;;;;;;5089968;28;20651;-73
2023/08/21 13:09:34;;;;;;;3.90;2.72;;;14.10;99.90;;;;;;5087645;28;20293;-72